DAL1647 KLAX-KSLC
Flight info
| Callsign | DAL1647 |
|---|---|
| Flight time | 1h 27m |
| Altitude | 33000 |
| Route | ORCKA5 LAS Q70 BLIPP Q842 WINEN MLF QWENN6 |
| Aircraft | B738/M-SDE2E3FGHIRWXY/LB1 |
Departure
| Time | 2026-05-07 22:45 |
|---|---|
| Airport | Los Angeles International Airport (KLAX) |
Arrival
| Time | 2026-05-08 00:13 |
|---|---|
| Airport | Salt Lake City International Airport (KSLC) |
| Time | Latitude | Longitude | Altitude | Speed | Heading |
|---|---|---|---|---|---|
| 2026-05-07 22:12 | 33.94158 | -118.40028 | 125 ft | 0 kts | 96° |
| 2026-05-07 22:33 | 33.94159 | -118.40038 | 120 ft | 3 kts | 99° |
| 2026-05-07 22:33 | 33.94165 | -118.40062 | 123 ft | 3 kts | 117° |
| 2026-05-07 22:34 | 33.94176 | -118.40082 | 119 ft | 3 kts | 143° |
| 2026-05-07 22:34 | 33.94193 | -118.40092 | 122 ft | 1 kts | 173° |
| 2026-05-07 22:36 | 33.94181 | -118.40090 | 119 ft | 4 kts | 173° |
| 2026-05-07 22:37 | 33.94132 | -118.40083 | 123 ft | 10 kts | 173° |
| 2026-05-07 22:37 | 33.94068 | -118.40073 | 123 ft | 6 kts | 173° |
| 2026-05-07 22:37 | 33.94040 | -118.40069 | 123 ft | 0 kts | 173° |
| 2026-05-07 22:38 | 33.94036 | -118.40069 | 125 ft | 2 kts | 172° |
| 2026-05-07 22:38 | 33.93998 | -118.40062 | 122 ft | 8 kts | 169° |
| 2026-05-07 22:38 | 33.93963 | -118.40025 | 123 ft | 8 kts | 104° |
| 2026-05-07 22:39 | 33.93966 | -118.39960 | 121 ft | 8 kts | 84° |
| 2026-05-07 22:39 | 33.93974 | -118.39875 | 125 ft | 13 kts | 82° |
| 2026-05-07 22:39 | 33.93951 | -118.39802 | 125 ft | 9 kts | 111° |
| 2026-05-07 22:39 | 33.93939 | -118.39732 | 121 ft | 9 kts | 120° |
| 2026-05-07 22:40 | 33.93914 | -118.39669 | 125 ft | 9 kts | 88° |
| 2026-05-07 22:40 | 33.93920 | -118.39593 | 125 ft | 11 kts | 81° |
| 2026-05-07 22:40 | 33.93932 | -118.39478 | 125 ft | 17 kts | 83° |
| 2026-05-07 22:40 | 33.93948 | -118.39315 | 125 ft | 21 kts | 83° |
| 2026-05-07 22:41 | 33.93966 | -118.39136 | 123 ft | 23 kts | 83° |
| 2026-05-07 22:41 | 33.93989 | -118.38937 | 125 ft | 24 kts | 84° |
| 2026-05-07 22:41 | 33.94007 | -118.38744 | 125 ft | 23 kts | 83° |
| 2026-05-07 22:41 | 33.94026 | -118.38558 | 122 ft | 22 kts | 83° |
| 2026-05-07 22:42 | 33.94042 | -118.38399 | 122 ft | 11 kts | 83° |
| 2026-05-07 22:42 | 33.94041 | -118.38358 | 125 ft | 0 kts | 111° |
| 2026-05-07 22:43 | 33.94042 | -118.38356 | 125 ft | 1 kts | 92° |
| 2026-05-07 22:43 | 33.94043 | -118.38337 | 125 ft | 0 kts | 117° |
| 2026-05-07 22:43 | 33.94042 | -118.38336 | 125 ft | 0 kts | 124° |
| 2026-05-07 22:43 | 33.94041 | -118.38336 | 125 ft | 1 kts | 138° |
| 2026-05-07 22:44 | 33.94019 | -118.38331 | 125 ft | 7 kts | 170° |
| 2026-05-07 22:44 | 33.93955 | -118.38351 | 125 ft | 12 kts | 242° |
| 2026-05-07 22:44 | 33.93941 | -118.38445 | 122 ft | 12 kts | 263° |
| 2026-05-07 22:44 | 33.93910 | -118.38742 | 120 ft | 68 kts | 263° |
| 2026-05-07 22:45 | 33.93827 | -118.39552 | 123 ft | 127 kts | 262° |
| 2026-05-07 22:45 | 33.93694 | -118.40785 | 301 ft | 162 kts | 262° |
| 2026-05-07 22:45 | 33.93559 | -118.42098 | 1070 ft | 159 kts | 262° |
| 2026-05-07 22:45 | 33.93416 | -118.43470 | 1627 ft | 176 kts | 263° |
| 2026-05-07 22:46 | 33.93258 | -118.45058 | 1902 ft | 204 kts | 264° |
| 2026-05-07 22:46 | 33.93013 | -118.46847 | 2062 ft | 229 kts | 253° |
| 2026-05-07 22:46 | 33.92449 | -118.48755 | 2354 ft | 252 kts | 250° |
| 2026-05-07 22:46 | 33.91788 | -118.50742 | 3010 ft | 259 kts | 249° |
| 2026-05-07 22:47 | 33.91102 | -118.52755 | 3776 ft | 258 kts | 250° |
| 2026-05-07 22:47 | 33.90432 | -118.54753 | 4616 ft | 256 kts | 250° |
| 2026-05-07 22:47 | 33.89787 | -118.56755 | 5344 ft | 260 kts | 250° |
| 2026-05-07 22:47 | 33.89115 | -118.58804 | 6008 ft | 265 kts | 249° |
| 2026-05-07 22:48 | 33.88064 | -118.60640 | 6589 ft | 275 kts | 219° |
| 2026-05-07 22:48 | 33.86286 | -118.61555 | 7193 ft | 285 kts | 190° |
| 2026-05-07 22:48 | 33.84298 | -118.61433 | 7841 ft | 290 kts | 164° |
| 2026-05-07 22:48 | 33.82506 | -118.60338 | 8536 ft | 293 kts | 139° |
| 2026-05-07 22:49 | 33.81259 | -118.58413 | 9140 ft | 294 kts | 111° |
| 2026-05-07 22:49 | 33.80896 | -118.56048 | 9932 ft | 288 kts | 84° |
| 2026-05-07 22:49 | 33.81499 | -118.53779 | 10522 ft | 290 kts | 56° |
| 2026-05-07 22:49 | 33.82876 | -118.51912 | 10713 ft | 310 kts | 39° |
| 2026-05-07 22:50 | 33.84697 | -118.50376 | 10898 ft | 329 kts | 33° |
| 2026-05-07 22:50 | 33.86688 | -118.48873 | 11081 ft | 347 kts | 33° |
| 2026-05-07 22:50 | 33.88713 | -118.47302 | 11547 ft | 353 kts | 33° |
| 2026-05-07 22:50 | 33.90780 | -118.45652 | 12052 ft | 359 kts | 34° |
| 2026-05-07 22:51 | 33.92732 | -118.43771 | 12674 ft | 361 kts | 44° |
| 2026-05-07 22:51 | 33.94383 | -118.41500 | 13334 ft | 362 kts | 54° |
| 2026-05-07 22:51 | 33.95795 | -118.38992 | 13939 ft | 365 kts | 57° |
| 2026-05-07 22:51 | 33.97205 | -118.36434 | 14473 ft | 369 kts | 56° |
| 2026-05-07 22:52 | 33.98638 | -118.33865 | 15143 ft | 369 kts | 56° |
| 2026-05-07 22:52 | 34.00087 | -118.31296 | 15729 ft | 372 kts | 56° |
| 2026-05-07 22:52 | 34.01552 | -118.28711 | 16335 ft | 375 kts | 56° |
| 2026-05-07 22:52 | 34.03023 | -118.26121 | 16885 ft | 378 kts | 56° |
| 2026-05-07 22:53 | 34.04517 | -118.23490 | 17420 ft | 383 kts | 55° |
| 2026-05-07 22:53 | 34.06024 | -118.20828 | 17989 ft | 385 kts | 55° |
| 2026-05-07 22:53 | 34.07540 | -118.18149 | 18518 ft | 388 kts | 55° |
| 2026-05-07 22:53 | 34.09072 | -118.15440 | 18993 ft | 392 kts | 55° |
| 2026-05-07 22:54 | 34.10613 | -118.12714 | 19490 ft | 394 kts | 55° |
| 2026-05-07 22:54 | 34.12163 | -118.09970 | 19915 ft | 399 kts | 55° |
| 2026-05-07 22:54 | 34.13728 | -118.07196 | 20444 ft | 400 kts | 55° |
| 2026-05-07 22:54 | 34.15304 | -118.04400 | 20844 ft | 405 kts | 55° |
| 2026-05-07 22:55 | 34.16873 | -118.01616 | 21354 ft | 407 kts | 55° |
| 2026-05-07 22:55 | 34.18486 | -117.98750 | 21804 ft | 410 kts | 55° |
| 2026-05-07 22:55 | 34.20074 | -117.95925 | 22209 ft | 414 kts | 55° |
| 2026-05-07 22:55 | 34.21698 | -117.93033 | 22657 ft | 416 kts | 55° |
| 2026-05-07 22:56 | 34.23328 | -117.90132 | 23110 ft | 419 kts | 55° |
| 2026-05-07 22:56 | 34.24970 | -117.87204 | 23515 ft | 423 kts | 55° |
| 2026-05-07 22:56 | 34.26627 | -117.84249 | 23859 ft | 425 kts | 55° |
| 2026-05-07 22:56 | 34.28290 | -117.81277 | 24189 ft | 427 kts | 55° |
| 2026-05-07 22:57 | 34.29958 | -117.78295 | 24517 ft | 430 kts | 55° |
| 2026-05-07 22:57 | 34.31643 | -117.75282 | 24871 ft | 432 kts | 54° |
| 2026-05-07 22:57 | 34.33333 | -117.72259 | 25239 ft | 434 kts | 55° |
| 2026-05-07 22:57 | 34.35029 | -117.69225 | 25580 ft | 436 kts | 54° |
| 2026-05-07 22:58 | 34.36762 | -117.66207 | 25937 ft | 437 kts | 53° |
| 2026-05-07 22:58 | 34.38543 | -117.63217 | 26272 ft | 439 kts | 53° |
| 2026-05-07 22:58 | 34.40349 | -117.60225 | 26589 ft | 442 kts | 52° |
| 2026-05-07 22:58 | 34.42151 | -117.57245 | 26889 ft | 444 kts | 52° |
| 2026-05-07 22:59 | 34.43976 | -117.54218 | 27202 ft | 446 kts | 52° |
| 2026-05-07 22:59 | 34.45799 | -117.51179 | 27619 ft | 447 kts | 53° |
| 2026-05-07 22:59 | 34.47616 | -117.48136 | 27936 ft | 449 kts | 53° |
| 2026-05-07 22:59 | 34.49448 | -117.45061 | 28313 ft | 449 kts | 53° |
| 2026-05-07 23:00 | 34.51263 | -117.42006 | 28663 ft | 450 kts | 53° |
| 2026-05-07 23:00 | 34.53098 | -117.38915 | 28921 ft | 452 kts | 53° |
| 2026-05-07 23:00 | 34.54939 | -117.35810 | 29192 ft | 454 kts | 53° |
| 2026-05-07 23:00 | 34.56787 | -117.32691 | 29572 ft | 453 kts | 53° |
| 2026-05-07 23:01 | 34.58622 | -117.29591 | 30030 ft | 451 kts | 53° |
| 2026-05-07 23:01 | 34.60449 | -117.26501 | 30409 ft | 450 kts | 53° |
| 2026-05-07 23:01 | 34.62268 | -117.23424 | 30714 ft | 449 kts | 53° |
| 2026-05-07 23:01 | 34.64094 | -117.20333 | 30989 ft | 449 kts | 53° |
| 2026-05-07 23:02 | 34.65910 | -117.17254 | 31222 ft | 448 kts | 53° |
| 2026-05-07 23:02 | 34.67702 | -117.14215 | 31600 ft | 446 kts | 53° |
| 2026-05-07 23:02 | 34.69502 | -117.11160 | 31972 ft | 444 kts | 53° |
| 2026-05-07 23:02 | 34.71300 | -117.08104 | 32284 ft | 444 kts | 53° |
| 2026-05-07 23:03 | 34.73098 | -117.05047 | 32551 ft | 445 kts | 53° |
| 2026-05-07 23:03 | 34.74886 | -117.02005 | 32848 ft | 444 kts | 53° |
| 2026-05-07 23:03 | 34.76688 | -116.98936 | 32927 ft | 448 kts | 53° |
| 2026-05-07 23:04 | 34.80313 | -116.92752 | 32942 ft | 448 kts | 53° |
| 2026-05-07 23:04 | 34.83894 | -116.86631 | 32960 ft | 442 kts | 53° |
| 2026-05-07 23:05 | 34.87444 | -116.80555 | 32949 ft | 441 kts | 53° |
| 2026-05-07 23:05 | 34.90993 | -116.74472 | 32951 ft | 440 kts | 53° |
| 2026-05-07 23:06 | 34.94861 | -116.68743 | 32952 ft | 437 kts | 46° |
| 2026-05-07 23:06 | 34.99037 | -116.63358 | 32935 ft | 437 kts | 45° |
| 2026-05-07 23:07 | 35.03215 | -116.57964 | 32924 ft | 437 kts | 45° |
| 2026-05-07 23:07 | 35.07370 | -116.52519 | 32914 ft | 438 kts | 46° |
| 2026-05-07 23:08 | 35.11506 | -116.47056 | 32906 ft | 437 kts | 46° |
| 2026-05-07 23:08 | 35.15592 | -116.41641 | 32897 ft | 431 kts | 46° |
| 2026-05-07 23:09 | 35.19635 | -116.36277 | 32919 ft | 431 kts | 46° |
| 2026-05-07 23:09 | 35.23013 | -116.31791 | 32927 ft | 431 kts | 46° |
| 2026-05-07 23:10 | 35.27743 | -116.25498 | 32921 ft | 432 kts | 46° |
| 2026-05-07 23:10 | 35.31126 | -116.20995 | 32922 ft | 432 kts | 46° |
| 2026-05-07 23:11 | 35.35196 | -116.15564 | 32910 ft | 434 kts | 46° |
| 2026-05-07 23:11 | 35.39265 | -116.10122 | 32912 ft | 434 kts | 46° |
| 2026-05-07 23:12 | 35.43345 | -116.04659 | 32920 ft | 434 kts | 46° |
| 2026-05-07 23:12 | 35.47423 | -115.99190 | 32940 ft | 434 kts | 46° |
| 2026-05-07 23:13 | 35.51501 | -115.93714 | 32960 ft | 435 kts | 46° |
| 2026-05-07 23:13 | 35.55577 | -115.88229 | 32964 ft | 434 kts | 46° |
| 2026-05-07 23:14 | 35.59643 | -115.82750 | 32956 ft | 434 kts | 46° |
| 2026-05-07 23:14 | 35.63701 | -115.77271 | 32957 ft | 433 kts | 46° |
| 2026-05-07 23:15 | 35.67728 | -115.71764 | 32979 ft | 432 kts | 46° |
| 2026-05-07 23:15 | 35.71723 | -115.66263 | 32984 ft | 432 kts | 46° |
| 2026-05-07 23:16 | 35.75725 | -115.60751 | 32985 ft | 431 kts | 46° |
| 2026-05-07 23:16 | 35.79709 | -115.55259 | 32977 ft | 431 kts | 46° |
| 2026-05-07 23:17 | 35.83690 | -115.49762 | 32977 ft | 430 kts | 46° |
| 2026-05-07 23:17 | 35.87652 | -115.44283 | 32983 ft | 429 kts | 46° |
| 2026-05-07 23:18 | 35.91618 | -115.38790 | 32983 ft | 429 kts | 46° |
| 2026-05-07 23:18 | 35.95580 | -115.33294 | 32978 ft | 429 kts | 46° |
| 2026-05-07 23:19 | 35.99548 | -115.27779 | 32975 ft | 429 kts | 46° |
| 2026-05-07 23:19 | 36.03506 | -115.22270 | 32954 ft | 429 kts | 46° |
| 2026-05-07 23:20 | 36.07440 | -115.16789 | 32956 ft | 429 kts | 46° |
| 2026-05-07 23:20 | 36.11770 | -115.11750 | 32957 ft | 427 kts | 39° |
| 2026-05-07 23:21 | 36.16308 | -115.06985 | 32880 ft | 428 kts | 39° |
| 2026-05-07 23:21 | 36.20826 | -115.02190 | 32890 ft | 428 kts | 39° |
| 2026-05-07 23:22 | 36.25320 | -114.97352 | 32896 ft | 429 kts | 39° |
| 2026-05-07 23:22 | 36.29818 | -114.92484 | 32884 ft | 429 kts | 39° |
| 2026-05-07 23:23 | 36.34311 | -114.87616 | 32877 ft | 429 kts | 39° |
| 2026-05-07 23:23 | 36.38802 | -114.82743 | 32864 ft | 429 kts | 39° |
| 2026-05-07 23:24 | 36.43294 | -114.77860 | 32858 ft | 429 kts | 39° |
| 2026-05-07 23:24 | 36.47779 | -114.72970 | 32843 ft | 429 kts | 39° |
| 2026-05-07 23:25 | 36.52265 | -114.68068 | 32847 ft | 429 kts | 39° |
| 2026-05-07 23:25 | 36.56747 | -114.63163 | 32847 ft | 429 kts | 39° |
| 2026-05-07 23:26 | 36.61232 | -114.58247 | 32843 ft | 430 kts | 39° |
| 2026-05-07 23:26 | 36.65720 | -114.53319 | 32838 ft | 430 kts | 39° |
| 2026-05-07 23:27 | 36.72556 | -114.46111 | 32843 ft | 428 kts | 32° |
| 2026-05-07 23:27 | 36.77592 | -114.42171 | 32845 ft | 427 kts | 30° |
| 2026-05-07 23:28 | 36.82662 | -114.38294 | 32872 ft | 427 kts | 30° |
| 2026-05-07 23:28 | 36.87682 | -114.34401 | 32861 ft | 428 kts | 30° |
| 2026-05-07 23:29 | 36.92721 | -114.30449 | 32868 ft | 428 kts | 30° |
| 2026-05-07 23:29 | 36.97764 | -114.26480 | 32870 ft | 428 kts | 30° |
| 2026-05-07 23:30 | 37.02800 | -114.22502 | 32869 ft | 428 kts | 30° |
| 2026-05-07 23:30 | 37.07842 | -114.18517 | 32883 ft | 428 kts | 30° |
| 2026-05-07 23:31 | 37.12890 | -114.14523 | 32888 ft | 429 kts | 30° |
| 2026-05-07 23:31 | 37.17944 | -114.10517 | 32889 ft | 430 kts | 30° |
| 2026-05-07 23:32 | 37.22997 | -114.06505 | 32910 ft | 430 kts | 30° |
| 2026-05-07 23:32 | 37.28051 | -114.02486 | 32889 ft | 430 kts | 30° |
| 2026-05-07 23:33 | 37.33105 | -113.98461 | 32909 ft | 430 kts | 30° |
| 2026-05-07 23:33 | 37.38168 | -113.94420 | 32913 ft | 431 kts | 31° |
| 2026-05-07 23:34 | 37.43245 | -113.90364 | 32908 ft | 432 kts | 30° |
| 2026-05-07 23:34 | 37.48320 | -113.86296 | 32923 ft | 432 kts | 31° |
| 2026-05-07 23:35 | 37.53369 | -113.82250 | 32922 ft | 433 kts | 31° |
| 2026-05-07 23:35 | 37.58463 | -113.78162 | 32924 ft | 434 kts | 30° |
| 2026-05-07 23:36 | 37.63555 | -113.74068 | 32930 ft | 434 kts | 30° |
| 2026-05-07 23:36 | 37.68648 | -113.69963 | 32921 ft | 434 kts | 30° |
| 2026-05-07 23:37 | 37.73733 | -113.65859 | 32925 ft | 433 kts | 30° |
| 2026-05-07 23:37 | 37.78807 | -113.61757 | 32919 ft | 433 kts | 30° |
| 2026-05-07 23:38 | 37.83873 | -113.57653 | 32919 ft | 432 kts | 30° |
| 2026-05-07 23:38 | 37.88933 | -113.53550 | 32922 ft | 431 kts | 30° |
| 2026-05-07 23:39 | 37.93945 | -113.49369 | 32919 ft | 433 kts | 35° |
| 2026-05-07 23:39 | 37.98484 | -113.44314 | 32918 ft | 435 kts | 39° |
| 2026-05-07 23:40 | 38.02942 | -113.39137 | 32925 ft | 435 kts | 39° |
| 2026-05-07 23:40 | 38.07430 | -113.33982 | 32921 ft | 435 kts | 39° |
| 2026-05-07 23:41 | 38.11932 | -113.28848 | 32923 ft | 435 kts | 38° |
| 2026-05-07 23:41 | 38.16430 | -113.23723 | 32943 ft | 435 kts | 38° |
| 2026-05-07 23:42 | 38.20936 | -113.18577 | 32976 ft | 435 kts | 38° |
| 2026-05-07 23:42 | 38.25437 | -113.13427 | 33001 ft | 435 kts | 38° |
| 2026-05-07 23:43 | 38.29940 | -113.08265 | 33035 ft | 435 kts | 38° |
| 2026-05-07 23:43 | 38.34419 | -113.03163 | 33043 ft | 434 kts | 35° |
| 2026-05-07 23:44 | 38.39531 | -112.99288 | 33049 ft | 426 kts | 19° |
| 2026-05-07 23:44 | 38.45024 | -112.96431 | 32882 ft | 427 kts | 19° |
| 2026-05-07 23:45 | 38.47773 | -112.95006 | 32610 ft | 424 kts | 19° |
| 2026-05-07 23:45 | 38.50486 | -112.93584 | 32347 ft | 419 kts | 19° |
| 2026-05-07 23:45 | 38.53166 | -112.92167 | 32080 ft | 415 kts | 19° |
| 2026-05-07 23:45 | 38.55832 | -112.90750 | 31824 ft | 415 kts | 19° |
| 2026-05-07 23:46 | 38.58491 | -112.89333 | 31566 ft | 414 kts | 20° |
| 2026-05-07 23:46 | 38.61143 | -112.87916 | 31305 ft | 413 kts | 20° |
| 2026-05-07 23:46 | 38.63795 | -112.86498 | 31047 ft | 412 kts | 20° |
| 2026-05-07 23:46 | 38.66439 | -112.85083 | 30796 ft | 412 kts | 20° |
| 2026-05-07 23:47 | 38.69075 | -112.83671 | 30543 ft | 411 kts | 20° |
| 2026-05-07 23:47 | 38.71718 | -112.82255 | 30290 ft | 410 kts | 20° |
| 2026-05-07 23:47 | 38.74354 | -112.80841 | 30056 ft | 410 kts | 20° |
| 2026-05-07 23:47 | 38.76983 | -112.79429 | 29791 ft | 409 kts | 20° |
| 2026-05-07 23:48 | 38.79602 | -112.78022 | 29531 ft | 408 kts | 20° |
| 2026-05-07 23:48 | 38.82219 | -112.76615 | 29249 ft | 407 kts | 19° |
| 2026-05-07 23:48 | 38.84824 | -112.75213 | 28983 ft | 405 kts | 19° |
| 2026-05-07 23:48 | 38.87389 | -112.73831 | 28714 ft | 403 kts | 19° |
| 2026-05-07 23:49 | 38.89971 | -112.72436 | 28437 ft | 401 kts | 19° |
| 2026-05-07 23:49 | 38.92538 | -112.71049 | 28182 ft | 399 kts | 19° |
| 2026-05-07 23:49 | 38.95089 | -112.69669 | 27915 ft | 397 kts | 19° |
| 2026-05-07 23:49 | 38.97626 | -112.68296 | 27675 ft | 395 kts | 19° |
| 2026-05-07 23:50 | 39.00153 | -112.66927 | 27402 ft | 393 kts | 19° |
| 2026-05-07 23:50 | 39.02673 | -112.65561 | 27143 ft | 391 kts | 19° |
| 2026-05-07 23:50 | 39.05176 | -112.64203 | 26895 ft | 389 kts | 19° |
| 2026-05-07 23:50 | 39.07665 | -112.62853 | 26647 ft | 388 kts | 19° |
| 2026-05-07 23:51 | 39.10149 | -112.61503 | 26408 ft | 386 kts | 19° |
| 2026-05-07 23:51 | 39.12621 | -112.60159 | 26166 ft | 385 kts | 19° |
| 2026-05-07 23:51 | 39.15084 | -112.58819 | 25924 ft | 383 kts | 19° |
| 2026-05-07 23:51 | 39.17540 | -112.57481 | 25692 ft | 382 kts | 19° |
| 2026-05-07 23:52 | 39.19156 | -112.56601 | 25541 ft | 381 kts | 19° |
| 2026-05-07 23:52 | 39.21595 | -112.55271 | 25301 ft | 380 kts | 19° |
| 2026-05-07 23:52 | 39.24810 | -112.53516 | 24990 ft | 378 kts | 19° |
| 2026-05-07 23:52 | 39.27228 | -112.52196 | 24762 ft | 377 kts | 19° |
| 2026-05-07 23:53 | 39.29635 | -112.50880 | 24521 ft | 375 kts | 19° |
| 2026-05-07 23:53 | 39.31257 | -112.49985 | 24371 ft | 375 kts | 19° |
| 2026-05-07 23:53 | 39.33636 | -112.48635 | 24144 ft | 374 kts | 19° |
| 2026-05-07 23:53 | 39.36015 | -112.47267 | 23916 ft | 373 kts | 19° |
| 2026-05-07 23:54 | 39.38372 | -112.45905 | 23594 ft | 369 kts | 19° |
| 2026-05-07 23:54 | 39.40707 | -112.44556 | 23190 ft | 367 kts | 19° |
| 2026-05-07 23:54 | 39.43030 | -112.43218 | 22753 ft | 364 kts | 19° |
| 2026-05-07 23:54 | 39.45336 | -112.41891 | 22342 ft | 361 kts | 19° |
| 2026-05-07 23:55 | 39.47627 | -112.40573 | 21934 ft | 359 kts | 19° |
| 2026-05-07 23:55 | 39.49895 | -112.39268 | 21542 ft | 356 kts | 18° |
| 2026-05-07 23:55 | 39.52150 | -112.37969 | 21159 ft | 353 kts | 18° |
| 2026-05-07 23:55 | 39.54378 | -112.36685 | 20762 ft | 351 kts | 18° |
| 2026-05-07 23:56 | 39.56604 | -112.35402 | 20383 ft | 349 kts | 18° |
| 2026-05-07 23:56 | 39.58821 | -112.34123 | 19992 ft | 348 kts | 18° |
| 2026-05-07 23:56 | 39.61027 | -112.32849 | 19615 ft | 346 kts | 18° |
| 2026-05-07 23:56 | 39.63227 | -112.31579 | 19192 ft | 347 kts | 18° |
| 2026-05-07 23:57 | 39.65434 | -112.30304 | 18798 ft | 347 kts | 18° |
| 2026-05-07 23:57 | 39.67607 | -112.29048 | 18405 ft | 346 kts | 18° |
| 2026-05-07 23:57 | 39.69803 | -112.27777 | 17996 ft | 345 kts | 18° |
| 2026-05-07 23:57 | 39.71986 | -112.26511 | 17595 ft | 343 kts | 18° |
| 2026-05-07 23:58 | 39.74153 | -112.25255 | 17191 ft | 341 kts | 18° |
| 2026-05-07 23:58 | 39.76312 | -112.24003 | 16814 ft | 338 kts | 18° |
| 2026-05-07 23:58 | 39.78461 | -112.22758 | 16436 ft | 337 kts | 19° |
| 2026-05-07 23:58 | 39.80594 | -112.21517 | 16073 ft | 335 kts | 18° |
| 2026-05-07 23:59 | 39.82717 | -112.20281 | 15705 ft | 333 kts | 18° |
| 2026-05-07 23:59 | 39.84831 | -112.19051 | 15329 ft | 332 kts | 19° |
| 2026-05-07 23:59 | 39.86937 | -112.17826 | 14980 ft | 331 kts | 19° |
| 2026-05-07 23:59 | 39.89033 | -112.16605 | 14631 ft | 330 kts | 19° |
| 2026-05-08 00:00 | 39.91116 | -112.15391 | 14411 ft | 324 kts | 19° |
| 2026-05-08 00:00 | 39.93152 | -112.14201 | 14268 ft | 317 kts | 19° |
| 2026-05-08 00:00 | 39.95145 | -112.13037 | 14130 ft | 311 kts | 19° |
| 2026-05-08 00:00 | 39.97096 | -112.11900 | 13979 ft | 303 kts | 18° |
| 2026-05-08 00:01 | 39.99033 | -112.10946 | 13875 ft | 296 kts | 12° |
| 2026-05-08 00:01 | 40.01005 | -112.10173 | 13730 ft | 297 kts | 11° |
| 2026-05-08 00:01 | 40.03018 | -112.09426 | 13581 ft | 302 kts | 11° |
| 2026-05-08 00:01 | 40.05022 | -112.08674 | 13435 ft | 304 kts | 11° |
| 2026-05-08 00:02 | 40.07047 | -112.07897 | 13272 ft | 303 kts | 12° |
| 2026-05-08 00:02 | 40.09064 | -112.07112 | 13143 ft | 301 kts | 12° |
| 2026-05-08 00:02 | 40.11068 | -112.06323 | 13009 ft | 300 kts | 12° |
| 2026-05-08 00:02 | 40.13065 | -112.05532 | 12865 ft | 299 kts | 12° |
| 2026-05-08 00:03 | 40.15054 | -112.04742 | 12733 ft | 298 kts | 12° |
| 2026-05-08 00:03 | 40.17038 | -112.03951 | 12600 ft | 297 kts | 12° |
| 2026-05-08 00:03 | 40.19014 | -112.03161 | 12461 ft | 297 kts | 12° |
| 2026-05-08 00:03 | 40.20996 | -112.02369 | 12326 ft | 297 kts | 12° |
| 2026-05-08 00:04 | 40.22947 | -112.01588 | 12183 ft | 297 kts | 12° |
| 2026-05-08 00:04 | 40.24925 | -112.00795 | 12048 ft | 297 kts | 13° |
| 2026-05-08 00:04 | 40.26908 | -112.00000 | 11914 ft | 298 kts | 12° |
| 2026-05-08 00:04 | 40.28896 | -111.99202 | 11772 ft | 299 kts | 12° |
| 2026-05-08 00:05 | 40.30886 | -111.98403 | 11634 ft | 300 kts | 12° |
| 2026-05-08 00:05 | 40.32885 | -111.97600 | 11488 ft | 300 kts | 13° |
| 2026-05-08 00:05 | 40.34863 | -111.96803 | 11334 ft | 294 kts | 13° |
| 2026-05-08 00:05 | 40.36774 | -111.96032 | 11181 ft | 287 kts | 13° |
| 2026-05-08 00:06 | 40.38660 | -111.95272 | 11046 ft | 280 kts | 12° |
| 2026-05-08 00:06 | 40.40536 | -111.94735 | 10781 ft | 273 kts | 359° |
| 2026-05-08 00:06 | 40.42419 | -111.94706 | 10545 ft | 269 kts | 356° |
| 2026-05-08 00:06 | 40.44284 | -111.94702 | 10295 ft | 267 kts | 356° |
| 2026-05-08 00:07 | 40.46136 | -111.94670 | 10044 ft | 266 kts | 356° |
| 2026-05-08 00:07 | 40.47985 | -111.94618 | 9790 ft | 266 kts | 357° |
| 2026-05-08 00:07 | 40.49836 | -111.94560 | 9514 ft | 266 kts | 356° |
| 2026-05-08 00:07 | 40.51687 | -111.94502 | 9239 ft | 266 kts | 357° |
| 2026-05-08 00:08 | 40.53533 | -111.94480 | 8921 ft | 265 kts | 353° |
| 2026-05-08 00:08 | 40.55376 | -111.94669 | 8582 ft | 266 kts | 351° |
| 2026-05-08 00:08 | 40.57212 | -111.94910 | 8241 ft | 268 kts | 350° |
| 2026-05-08 00:08 | 40.59036 | -111.95156 | 7775 ft | 272 kts | 351° |
| 2026-05-08 00:09 | 40.60922 | -111.95386 | 7432 ft | 266 kts | 351° |
| 2026-05-08 00:09 | 40.62742 | -111.95599 | 7124 ft | 256 kts | 354° |
| 2026-05-08 00:09 | 40.64451 | -111.95796 | 6850 ft | 243 kts | 354° |
| 2026-05-08 00:09 | 40.66092 | -111.95987 | 6558 ft | 230 kts | 355° |
| 2026-05-08 00:10 | 40.67618 | -111.96164 | 6283 ft | 215 kts | 355° |
| 2026-05-08 00:10 | 40.69065 | -111.96333 | 5975 ft | 203 kts | 354° |
| 2026-05-08 00:10 | 40.70436 | -111.96492 | 5684 ft | 193 kts | 353° |
| 2026-05-08 00:10 | 40.71741 | -111.96644 | 5421 ft | 181 kts | 353° |
| 2026-05-08 00:11 | 40.72957 | -111.96787 | 5162 ft | 175 kts | 353° |
| 2026-05-08 00:11 | 40.74129 | -111.96926 | 4889 ft | 165 kts | 353° |
| 2026-05-08 00:11 | 40.75253 | -111.97064 | 4618 ft | 159 kts | 354° |
| 2026-05-08 00:11 | 40.76365 | -111.97182 | 4506 ft | 160 kts | 353° |
| 2026-05-08 00:12 | 40.77495 | -111.97318 | 4314 ft | 165 kts | 354° |
| 2026-05-08 00:12 | 40.78584 | -111.97446 | 4228 ft | 146 kts | 354° |
| 2026-05-08 00:12 | 40.79360 | -111.97533 | 4227 ft | 107 kts | 355° |
| 2026-05-08 00:12 | 40.79762 | -111.97578 | 4228 ft | 66 kts | 355° |
| 2026-05-08 00:13 | 40.79988 | -111.97600 | 4231 ft | 40 kts | 356° |
| 2026-05-08 00:13 | 40.80042 | -111.97605 | 4234 ft | 0 kts | 346° |
| 2026-05-08 00:13 | 40.80044 | -111.97606 | 4234 ft | 2 kts | 346° |
| 2026-05-08 00:14 | 40.80076 | -111.97617 | 4235 ft | 7 kts | 345° |
| 2026-05-08 00:14 | 40.80140 | -111.97651 | 4236 ft | 12 kts | 325° |
| 2026-05-08 00:14 | 40.80171 | -111.97768 | 4236 ft | 16 kts | 258° |
| 2026-05-08 00:14 | 40.80065 | -111.97832 | 4234 ft | 23 kts | 174° |
| 2026-05-08 00:15 | 40.79895 | -111.97811 | 4230 ft | 25 kts | 175° |
| 2026-05-08 00:15 | 40.79729 | -111.97798 | 4227 ft | 23 kts | 176° |
| 2026-05-08 00:15 | 40.79572 | -111.97775 | 4224 ft | 22 kts | 175° |
| 2026-05-08 00:15 | 40.79424 | -111.97758 | 4227 ft | 22 kts | 174° |
| 2026-05-08 00:16 | 40.79275 | -111.97739 | 4228 ft | 21 kts | 176° |
| 2026-05-08 00:16 | 40.79130 | -111.97725 | 4230 ft | 21 kts | 175° |
| 2026-05-08 00:16 | 40.78992 | -111.97707 | 4235 ft | 20 kts | 175° |
| 2026-05-08 00:16 | 40.78855 | -111.97701 | 4232 ft | 19 kts | 204° |
| 2026-05-08 00:17 | 40.78784 | -111.97784 | 4232 ft | 10 kts | 176° |
| 2026-05-08 00:17 | 40.78750 | -111.97846 | 4233 ft | 9 kts | 264° |
| 2026-05-08 00:17 | 40.78737 | -111.97899 | 4232 ft | 2 kts | 197° |
| 2026-05-08 00:17 | 40.78719 | -111.97903 | 4232 ft | 4 kts | 181° |
| 2026-05-08 00:18 | 40.78682 | -111.97903 | 4231 ft | 4 kts | 180° |
| 2026-05-08 00:18 | 40.78673 | -111.97903 | 4231 ft | 1 kts | 180° |
| 2026-05-08 00:18 | 40.78672 | -111.97903 | 4231 ft | 0 kts | 180° |